sensor_id;sensor_type;location;lat;lon;timestamp;P1;durP1;ratioP1;P2;durP2;ratioP2
53203;SDS011;39086;54.424;18.456;2022-07-24T00:00:27;0.27;;;0.27;;
53203;SDS011;39086;54.424;18.456;2022-07-24T00:01:30;0.43;;;0.43;;
53203;SDS011;39086;54.424;18.456;2022-07-24T00:02:34;0.73;;;0.40;;
53203;SDS011;39086;54.424;18.456;2022-07-24T00:03:42;0.53;;;0.30;;
53203;SDS011;39086;54.424;18.456;2022-07-24T00:04:45;0.27;;;0.27;;
53203;SDS011;39086;54.424;18.456;2022-07-24T00:05:49;0.30;;;0.30;;
53203;SDS011;39086;54.424;18.456;2022-07-24T00:06:52;3.10;;;0.70;;
53203;SDS011;39086;54.424;18.456;2022-07-24T00:07:54;0.57;;;0.40;;
53203;SDS011;39086;54.424;18.456;2022-07-24T00:09:04;3.53;;;0.50;;
53203;SDS011;39086;54.424;18.456;2022-07-24T00:10:14;0.43;;;0.43;;
53203;SDS011;39086;54.424;18.456;2022-07-24T00:11:16;0.30;;;0.30;;
53203;SDS011;39086;54.424;18.456;2022-07-24T00:12:21;0.87;;;0.87;;
53203;SDS011;39086;54.424;18.456;2022-07-24T00:13:24;0.50;;;0.50;;
53203;SDS011;39086;54.424;18.456;2022-07-24T00:14:28;1.27;;;1.13;;
53203;SDS011;39086;54.424;18.456;2022-07-24T00:15:38;0.30;;;0.30;;
53203;SDS011;39086;54.424;18.456;2022-07-24T00:16:40;0.30;;;0.30;;
53203;SDS011;39086;54.424;18.456;2022-07-24T00:17:44;0.30;;;0.30;;
53203;SDS011;39086;54.424;18.456;2022-07-24T00:18:46;0.57;;;0.57;;
53203;SDS011;39086;54.424;18.456;2022-07-24T00:19:49;0.63;;;0.63;;
53203;SDS011;39086;54.424;18.456;2022-07-24T00:20:58;0.50;;;0.50;;
53203;SDS011;39086;54.424;18.456;2022-07-24T00:22:01;0.60;;;0.60;;
53203;SDS011;39086;54.424;18.456;2022-07-24T00:23:04;0.50;;;0.50;;
53203;SDS011;39086;54.424;18.456;2022-07-24T00:24:07;0.63;;;0.63;;
53203;SDS011;39086;54.424;18.456;2022-07-24T00:25:11;0.40;;;0.40;;
53203;SDS011;39086;54.424;18.456;2022-07-24T00:26:20;0.40;;;0.40;;
53203;SDS011;39086;54.424;18.456;2022-07-24T00:27:25;0.37;;;0.37;;
53203;SDS011;39086;54.424;18.456;2022-07-24T00:28:27;0.27;;;0.27;;
53203;SDS011;39086;54.424;18.456;2022-07-24T00:29:30;0.43;;;0.43;;
53203;SDS011;39086;54.424;18.456;2022-07-24T00:30:33;0.77;;;0.77;;
53203;SDS011;39086;54.424;18.456;2022-07-24T00:31:43;0.30;;;0.30;;
53203;SDS011;39086;54.424;18.456;2022-07-24T00:32:52;0.20;;;0.20;;
53203;SDS011;39086;54.424;18.456;2022-07-24T00:34:02;1.87;;;0.50;;
53203;SDS011;39086;54.424;18.456;2022-07-24T00:35:18;0.53;;;0.53;;
53203;SDS011;39086;54.424;18.456;2022-07-24T00:36:20;2.10;;;0.87;;
53203;SDS011;39086;54.424;18.456;2022-07-24T00:37:30;0.27;;;0.27;;
53203;SDS011;39086;54.424;18.456;2022-07-24T00:38:39;0.30;;;0.30;;
53203;SDS011;39086;54.424;18.456;2022-07-24T00:39:42;0.27;;;0.27;;
53203;SDS011;39086;54.424;18.456;2022-07-24T00:40:46;0.87;;;0.50;;
53203;SDS011;39086;54.424;18.456;2022-07-24T00:41:50;1.00;;;0.40;;
53203;SDS011;39086;54.424;18.456;2022-07-24T00:43:01;0.57;;;0.57;;
53203;SDS011;39086;54.424;18.456;2022-07-24T00:44:06;0.83;;;0.37;;
53203;SDS011;39086;54.424;18.456;2022-07-24T00:45:10;0.30;;;0.30;;
53203;SDS011;39086;54.424;18.456;2022-07-24T00:46:23;0.30;;;0.30;;
53203;SDS011;39086;54.424;18.456;2022-07-24T00:47:25;0.80;;;0.70;;
53203;SDS011;39086;54.424;18.456;2022-07-24T00:48:37;0.57;;;0.40;;
53203;SDS011;39086;54.424;18.456;2022-07-24T00:49:41;0.30;;;0.30;;
53203;SDS011;39086;54.424;18.456;2022-07-24T00:50:43;0.20;;;0.20;;
53203;SDS011;39086;54.424;18.456;2022-07-24T00:51:47;0.40;;;0.40;;
53203;SDS011;39086;54.424;18.456;2022-07-24T00:52:57;0.27;;;0.27;;
53203;SDS011;39086;54.424;18.456;2022-07-24T00:54:01;0.30;;;0.30;;
53203;SDS011;39086;54.424;18.456;2022-07-24T00:55:05;0.50;;;0.50;;
53203;SDS011;39086;54.424;18.456;2022-07-24T00:56:10;0.40;;;0.40;;
53203;SDS011;39086;54.424;18.456;2022-07-24T00:57:13;0.20;;;0.20;;
53203;SDS011;39086;54.424;18.456;2022-07-24T00:58:24;0.40;;;0.40;;
53203;SDS011;39086;54.424;18.456;2022-07-24T00:59:27;0.70;;;0.70;;
53203;SDS011;39086;54.424;18.456;2022-07-24T01:00:30;0.40;;;0.40;;
53203;SDS011;39086;54.424;18.456;2022-07-24T01:01:33;0.50;;;0.50;;
53203;SDS011;39086;54.424;18.456;2022-07-24T01:02:38;0.70;;;0.70;;
53203;SDS011;39086;54.424;18.456;2022-07-24T01:03:48;0.70;;;0.70;;
53203;SDS011;39086;54.424;18.456;2022-07-24T01:04:51;0.47;;;0.47;;
53203;SDS011;39086;54.424;18.456;2022-07-24T01:05:55;0.77;;;0.77;;
53203;SDS011;39086;54.424;18.456;2022-07-24T01:06:57;0.57;;;0.57;;
53203;SDS011;39086;54.424;18.456;2022-07-24T01:08:01;1.27;;;0.60;;
53203;SDS011;39086;54.424;18.456;2022-07-24T01:09:10;0.37;;;0.37;;
53203;SDS011;39086;54.424;18.456;2022-07-24T01:10:20;3.80;;;0.57;;
53203;SDS011;39086;54.424;18.456;2022-07-24T01:11:22;0.33;;;0.33;;
53203;SDS011;39086;54.424;18.456;2022-07-24T01:12:27;0.20;;;0.20;;
53203;SDS011;39086;54.424;18.456;2022-07-24T01:13:31;0.40;;;0.40;;
53203;SDS011;39086;54.424;18.456;2022-07-24T01:14:34;0.30;;;0.30;;
53203;SDS011;39086;54.424;18.456;2022-07-24T01:15:44;1.70;;;1.00;;
53203;SDS011;39086;54.424;18.456;2022-07-24T01:16:49;0.20;;;0.20;;
53203;SDS011;39086;54.424;18.456;2022-07-24T01:17:58;0.30;;;0.30;;
53203;SDS011;39086;54.424;18.456;2022-07-24T01:19:02;1.50;;;1.40;;
53203;SDS011;39086;54.424;18.456;2022-07-24T01:20:06;0.20;;;0.20;;
53203;SDS011;39086;54.424;18.456;2022-07-24T01:21:12;0.27;;;0.27;;
53203;SDS011;39086;54.424;18.456;2022-07-24T01:22:21;0.50;;;0.50;;
53203;SDS011;39086;54.424;18.456;2022-07-24T01:23:24;0.40;;;0.40;;
53203;SDS011;39086;54.424;18.456;2022-07-24T01:24:27;0.30;;;0.30;;
53203;SDS011;39086;54.424;18.456;2022-07-24T01:25:37;0.37;;;0.37;;
53203;SDS011;39086;54.424;18.456;2022-07-24T01:26:39;1.50;;;0.50;;
53203;SDS011;39086;54.424;18.456;2022-07-24T01:27:43;5.27;;;0.40;;
53203;SDS011;39086;54.424;18.456;2022-07-24T01:28:46;0.67;;;0.67;;
53203;SDS011;39086;54.424;18.456;2022-07-24T01:29:48;0.30;;;0.30;;
53203;SDS011;39086;54.424;18.456;2022-07-24T01:30:58;0.10;;;0.10;;
53203;SDS011;39086;54.424;18.456;2022-07-24T01:32:00;0.37;;;0.37;;
53203;SDS011;39086;54.424;18.456;2022-07-24T01:33:04;0.40;;;0.40;;
53203;SDS011;39086;54.424;18.456;2022-07-24T01:34:13;0.50;;;0.50;;
53203;SDS011;39086;54.424;18.456;2022-07-24T01:35:29;0.33;;;0.33;;
53203;SDS011;39086;54.424;18.456;2022-07-24T01:36:39;0.53;;;0.43;;
53203;SDS011;39086;54.424;18.456;2022-07-24T01:37:43;0.50;;;0.50;;
53203;SDS011;39086;54.424;18.456;2022-07-24T01:38:45;0.70;;;0.70;;
53203;SDS011;39086;54.424;18.456;2022-07-24T01:39:50;0.20;;;0.20;;
53203;SDS011;39086;54.424;18.456;2022-07-24T01:40:58;0.10;;;0.10;;
53203;SDS011;39086;54.424;18.456;2022-07-24T01:42:01;0.20;;;0.20;;
53203;SDS011;39086;54.424;18.456;2022-07-24T01:43:11;0.20;;;0.20;;
53203;SDS011;39086;54.424;18.456;2022-07-24T01:44:14;2.07;;;0.37;;
53203;SDS011;39086;54.424;18.456;2022-07-24T01:45:18;0.30;;;0.30;;
53203;SDS011;39086;54.424;18.456;2022-07-24T01:46:28;2.87;;;0.83;;
53203;SDS011;39086;54.424;18.456;2022-07-24T01:47:31;0.30;;;0.30;;
53203;SDS011;39086;54.424;18.456;2022-07-24T01:48:40;0.10;;;0.10;;
53203;SDS011;39086;54.424;18.456;2022-07-24T01:49:44;0.10;;;0.10;;
53203;SDS011;39086;54.424;18.456;2022-07-24T01:50:47;0.20;;;0.20;;
53203;SDS011;39086;54.424;18.456;2022-07-24T01:51:58;0.10;;;0.10;;
53203;SDS011;39086;54.424;18.456;2022-07-24T01:53:01;0.30;;;0.30;;
53203;SDS011;39086;54.424;18.456;2022-07-24T01:54:04;0.27;;;0.27;;
53203;SDS011;39086;54.424;18.456;2022-07-24T01:55:08;0.30;;;0.30;;
53203;SDS011;39086;54.424;18.456;2022-07-24T01:56:11;0.20;;;0.20;;
53203;SDS011;39086;54.424;18.456;2022-07-24T01:57:22;0.40;;;0.20;;
53203;SDS011;39086;54.424;18.456;2022-07-24T01:58:30;0.30;;;0.30;;
53203;SDS011;39086;54.424;18.456;2022-07-24T01:59:33;0.93;;;0.40;;
53203;SDS011;39086;54.424;18.456;2022-07-24T02:00:36;0.20;;;0.20;;
53203;SDS011;39086;54.424;18.456;2022-07-24T02:01:38;0.10;;;0.10;;
53203;SDS011;39086;54.424;18.456;2022-07-24T02:02:53;0.23;;;0.23;;
53203;SDS011;39086;54.424;18.456;2022-07-24T02:03:55;0.20;;;0.20;;
53203;SDS011;39086;54.424;18.456;2022-07-24T02:05:05;0.23;;;0.23;;
53203;SDS011;39086;54.424;18.456;2022-07-24T02:06:08;0.10;;;0.10;;
53203;SDS011;39086;54.424;18.456;2022-07-24T02:07:13;0.17;;;0.17;;
53203;SDS011;39086;54.424;18.456;2022-07-24T02:08:15;0.00;;;0.00;;
53203;SDS011;39086;54.424;18.456;2022-07-24T02:09:25;0.40;;;0.40;;
53203;SDS011;39086;54.424;18.456;2022-07-24T02:10:28;0.20;;;0.20;;
53203;SDS011;39086;54.424;18.456;2022-07-24T02:11:32;0.30;;;0.30;;
53203;SDS011;39086;54.424;18.456;2022-07-24T02:12:41;0.43;;;0.40;;
53203;SDS011;39086;54.424;18.456;2022-07-24T02:13:44;0.00;;;0.00;;
53203;SDS011;39086;54.424;18.456;2022-07-24T02:14:47;0.03;;;0.03;;
53203;SDS011;39086;54.424;18.456;2022-07-24T02:15:57;0.00;;;0.00;;
53203;SDS011;39086;54.424;18.456;2022-07-24T02:16:59;0.20;;;0.20;;
53203;SDS011;39086;54.424;18.456;2022-07-24T02:18:03;0.37;;;0.37;;
53203;SDS011;39086;54.424;18.456;2022-07-24T02:19:13;0.00;;;0.00;;
53203;SDS011;39086;54.424;18.456;2022-07-24T02:20:17;0.20;;;0.20;;
53203;SDS011;39086;54.424;18.456;2022-07-24T02:21:20;0.10;;;0.10;;
53203;SDS011;39086;54.424;18.456;2022-07-24T02:22:24;0.10;;;0.10;;
53203;SDS011;39086;54.424;18.456;2022-07-24T02:23:34;0.33;;;0.30;;
53203;SDS011;39086;54.424;18.456;2022-07-24T02:24:37;0.10;;;0.10;;
53203;SDS011;39086;54.424;18.456;2022-07-24T02:25:41;0.10;;;0.10;;
53203;SDS011;39086;54.424;18.456;2022-07-24T02:26:43;0.00;;;0.00;;
53203;SDS011;39086;54.424;18.456;2022-07-24T02:27:47;0.00;;;0.00;;
53203;SDS011;39086;54.424;18.456;2022-07-24T02:28:56;0.20;;;0.20;;
53203;SDS011;39086;54.424;18.456;2022-07-24T02:30:00;0.17;;;0.17;;
53203;SDS011;39086;54.424;18.456;2022-07-24T02:31:02;0.20;;;0.20;;
53203;SDS011;39086;54.424;18.456;2022-07-24T02:32:06;0.20;;;0.20;;
53203;SDS011;39086;54.424;18.456;2022-07-24T02:33:09;0.10;;;0.10;;
53203;SDS011;39086;54.424;18.456;2022-07-24T02:34:26;0.20;;;0.20;;
53203;SDS011;39086;54.424;18.456;2022-07-24T02:35:42;0.20;;;0.20;;
53203;SDS011;39086;54.424;18.456;2022-07-24T02:36:45;0.30;;;0.30;;
53203;SDS011;39086;54.424;18.456;2022-07-24T02:37:49;0.10;;;0.10;;
53203;SDS011;39086;54.424;18.456;2022-07-24T02:38:53;0.20;;;0.20;;
53203;SDS011;39086;54.424;18.456;2022-07-24T02:40:03;0.50;;;0.50;;
53203;SDS011;39086;54.424;18.456;2022-07-24T02:41:13;0.27;;;0.27;;
53203;SDS011;39086;54.424;18.456;2022-07-24T02:42:15;0.20;;;0.20;;
53203;SDS011;39086;54.424;18.456;2022-07-24T02:43:19;0.20;;;0.20;;
53203;SDS011;39086;54.424;18.456;2022-07-24T02:44:22;0.17;;;0.17;;
53203;SDS011;39086;54.424;18.456;2022-07-24T02:45:25;0.10;;;0.10;;
53203;SDS011;39086;54.424;18.456;2022-07-24T02:46:34;0.20;;;0.20;;
53203;SDS011;39086;54.424;18.456;2022-07-24T02:47:45;0.33;;;0.33;;
53203;SDS011;39086;54.424;18.456;2022-07-24T02:48:48;0.70;;;0.70;;
53203;SDS011;39086;54.424;18.456;2022-07-24T02:49:52;0.50;;;0.50;;
53203;SDS011;39086;54.424;18.456;2022-07-24T02:50:54;0.60;;;0.60;;
53203;SDS011;39086;54.424;18.456;2022-07-24T02:52:04;0.60;;;0.60;;
53203;SDS011;39086;54.424;18.456;2022-07-24T02:53:08;0.90;;;0.90;;
53203;SDS011;39086;54.424;18.456;2022-07-24T02:54:12;0.97;;;0.97;;
53203;SDS011;39086;54.424;18.456;2022-07-24T02:55:14;2.93;;;1.83;;
53203;SDS011;39086;54.424;18.456;2022-07-24T02:56:18;0.57;;;0.57;;
53203;SDS011;39086;54.424;18.456;2022-07-24T02:57:27;1.60;;;0.70;;
53203;SDS011;39086;54.424;18.456;2022-07-24T02:58:31;0.70;;;0.70;;
53203;SDS011;39086;54.424;18.456;2022-07-24T02:59:34;0.50;;;0.50;;
53203;SDS011;39086;54.424;18.456;2022-07-24T03:00:38;1.53;;;0.60;;
53203;SDS011;39086;54.424;18.456;2022-07-24T03:01:40;1.03;;;1.03;;
53203;SDS011;39086;54.424;18.456;2022-07-24T03:02:50;1.60;;;0.97;;
53203;SDS011;39086;54.424;18.456;2022-07-24T03:03:59;0.70;;;0.70;;
53203;SDS011;39086;54.424;18.456;2022-07-24T03:05:04;0.73;;;0.67;;
53203;SDS011;39086;54.424;18.456;2022-07-24T03:06:13;0.57;;;0.57;;
53203;SDS011;39086;54.424;18.456;2022-07-24T03:07:16;0.73;;;0.73;;
53203;SDS011;39086;54.424;18.456;2022-07-24T03:08:27;0.90;;;0.90;;
53203;SDS011;39086;54.424;18.456;2022-07-24T03:09:31;1.00;;;1.00;;
53203;SDS011;39086;54.424;18.456;2022-07-24T03:10:33;0.90;;;0.90;;
53203;SDS011;39086;54.424;18.456;2022-07-24T03:11:37;2.10;;;2.00;;
53203;SDS011;39086;54.424;18.456;2022-07-24T03:12:46;4.90;;;1.60;;
53203;SDS011;39086;54.424;18.456;2022-07-24T03:13:56;1.03;;;1.03;;
53203;SDS011;39086;54.424;18.456;2022-07-24T03:14:58;1.00;;;1.00;;
53203;SDS011;39086;54.424;18.456;2022-07-24T03:16:02;1.23;;;1.23;;
53203;SDS011;39086;54.424;18.456;2022-07-24T03:17:05;1.33;;;1.33;;
53203;SDS011;39086;54.424;18.456;2022-07-24T03:18:15;0.80;;;0.80;;
53203;SDS011;39086;54.424;18.456;2022-07-24T03:19:23;2.47;;;1.70;;
53203;SDS011;39086;54.424;18.456;2022-07-24T03:20:27;6.17;;;1.53;;
53203;SDS011;39086;54.424;18.456;2022-07-24T03:21:30;1.07;;;1.03;;
53203;SDS011;39086;54.424;18.456;2022-07-24T03:22:48;1.00;;;1.00;;
53203;SDS011;39086;54.424;18.456;2022-07-24T03:24:00;2.13;;;1.30;;
53203;SDS011;39086;54.424;18.456;2022-07-24T03:25:04;0.90;;;0.90;;
53203;SDS011;39086;54.424;18.456;2022-07-24T03:26:07;1.53;;;1.43;;
53203;SDS011;39086;54.424;18.456;2022-07-24T03:27:10;1.53;;;1.37;;
53203;SDS011;39086;54.424;18.456;2022-07-24T03:28:13;1.03;;;1.03;;
53203;SDS011;39086;54.424;18.456;2022-07-24T03:29:23;1.70;;;1.50;;
53203;SDS011;39086;54.424;18.456;2022-07-24T03:30:26;1.53;;;1.53;;
53203;SDS011;39086;54.424;18.456;2022-07-24T03:31:29;2.63;;;2.43;;
53203;SDS011;39086;54.424;18.456;2022-07-24T03:32:32;0.83;;;0.80;;
53203;SDS011;39086;54.424;18.456;2022-07-24T03:33:36;2.33;;;1.87;;
53203;SDS011;39086;54.424;18.456;2022-07-24T03:34:45;1.10;;;0.93;;
53203;SDS011;39086;54.424;18.456;2022-07-24T03:36:02;2.00;;;1.73;;
53203;SDS011;39086;54.424;18.456;2022-07-24T03:37:12;2.93;;;2.73;;
53203;SDS011;39086;54.424;18.456;2022-07-24T03:38:15;1.40;;;1.40;;
53203;SDS011;39086;54.424;18.456;2022-07-24T03:39:20;1.43;;;1.33;;
53203;SDS011;39086;54.424;18.456;2022-07-24T03:40:28;1.67;;;1.57;;
53203;SDS011;39086;54.424;18.456;2022-07-24T03:41:32;1.10;;;1.07;;
53203;SDS011;39086;54.424;18.456;2022-07-24T03:42:34;1.60;;;1.50;;
53203;SDS011;39086;54.424;18.456;2022-07-24T03:43:37;1.93;;;1.83;;
53203;SDS011;39086;54.424;18.456;2022-07-24T03:44:40;1.57;;;1.47;;
53203;SDS011;39086;54.424;18.456;2022-07-24T03:45:50;2.63;;;2.50;;
53203;SDS011;39086;54.424;18.456;2022-07-24T03:46:53;1.60;;;1.30;;
53203;SDS011;39086;54.424;18.456;2022-07-24T03:47:56;1.67;;;1.67;;
53203;SDS011;39086;54.424;18.456;2022-07-24T03:48:59;4.60;;;2.43;;
53203;SDS011;39086;54.424;18.456;2022-07-24T03:50:10;1.90;;;1.80;;
53203;SDS011;39086;54.424;18.456;2022-07-24T03:51:18;1.43;;;1.40;;
53203;SDS011;39086;54.424;18.456;2022-07-24T03:52:20;2.67;;;1.87;;
53203;SDS011;39086;54.424;18.456;2022-07-24T03:53:25;4.80;;;2.10;;
53203;SDS011;39086;54.424;18.456;2022-07-24T03:54:31;1.47;;;1.37;;
53203;SDS011;39086;54.424;18.456;2022-07-24T03:55:41;1.40;;;1.40;;
53203;SDS011;39086;54.424;18.456;2022-07-24T03:56:44;3.87;;;2.53;;
53203;SDS011;39086;54.424;18.456;2022-07-24T03:57:47;14.73;;;2.67;;
53203;SDS011;39086;54.424;18.456;2022-07-24T03:58:50;1.37;;;1.37;;
53203;SDS011;39086;54.424;18.456;2022-07-24T03:59:53;1.87;;;1.77;;
53203;SDS011;39086;54.424;18.456;2022-07-24T04:01:02;3.03;;;2.80;;
53203;SDS011;39086;54.424;18.456;2022-07-24T04:02:06;2.07;;;1.97;;
53203;SDS011;39086;54.424;18.456;2022-07-24T04:03:08;1.90;;;1.80;;
53203;SDS011;39086;54.424;18.456;2022-07-24T04:04:11;1.50;;;1.40;;
53203;SDS011;39086;54.424;18.456;2022-07-24T04:05:14;2.20;;;1.97;;
53203;SDS011;39086;54.424;18.456;2022-07-24T04:06:24;19.27;;;18.20;;
53203;SDS011;39086;54.424;18.456;2022-07-24T04:07:26;4.90;;;4.73;;
53203;SDS011;39086;54.424;18.456;2022-07-24T04:08:30;4.20;;;4.00;;
53203;SDS011;39086;54.424;18.456;2022-07-24T04:09:34;7.80;;;7.50;;
53203;SDS011;39086;54.424;18.456;2022-07-24T04:10:37;8.10;;;7.77;;
53203;SDS011;39086;54.424;18.456;2022-07-24T04:11:47;5.23;;;5.00;;
53203;SDS011;39086;54.424;18.456;2022-07-24T04:12:56;6.50;;;6.30;;
53203;SDS011;39086;54.424;18.456;2022-07-24T04:13:59;5.57;;;5.10;;
53203;SDS011;39086;54.424;18.456;2022-07-24T04:15:02;5.20;;;5.00;;
53203;SDS011;39086;54.424;18.456;2022-07-24T04:16:06;5.77;;;5.60;;
53203;SDS011;39086;54.424;18.456;2022-07-24T04:17:09;7.47;;;7.17;;
53203;SDS011;39086;54.424;18.456;2022-07-24T04:18:18;3.77;;;3.57;;
53203;SDS011;39086;54.424;18.456;2022-07-24T04:19:21;3.70;;;3.50;;
53203;SDS011;39086;54.424;18.456;2022-07-24T04:20:24;3.83;;;3.73;;
53203;SDS011;39086;54.424;18.456;2022-07-24T04:21:27;3.20;;;3.00;;
53203;SDS011;39086;54.424;18.456;2022-07-24T04:22:44;9.67;;;6.27;;
53203;SDS011;39086;54.424;18.456;2022-07-24T04:23:48;7.20;;;7.00;;
53203;SDS011;39086;54.424;18.456;2022-07-24T04:24:52;10.50;;;9.57;;
53203;SDS011;39086;54.424;18.456;2022-07-24T04:25:55;4.80;;;4.50;;
53203;SDS011;39086;54.424;18.456;2022-07-24T04:26:58;3.67;;;3.57;;
53203;SDS011;39086;54.424;18.456;2022-07-24T04:28:08;6.43;;;6.23;;
53203;SDS011;39086;54.424;18.456;2022-07-24T04:29:10;7.67;;;7.17;;
53203;SDS011;39086;54.424;18.456;2022-07-24T04:30:20;9.40;;;9.00;;
53203;SDS011;39086;54.424;18.456;2022-07-24T04:31:23;9.10;;;8.23;;
53203;SDS011;39086;54.424;18.456;2022-07-24T04:32:34;7.77;;;7.47;;
53203;SDS011;39086;54.424;18.456;2022-07-24T04:33:36;9.93;;;9.57;;
53203;SDS011;39086;54.424;18.456;2022-07-24T04:34:40;11.43;;;11.03;;
53203;SDS011;39086;54.424;18.456;2022-07-24T04:35:55;9.93;;;9.60;;
53203;SDS011;39086;54.424;18.456;2022-07-24T04:37:05;10.30;;;9.77;;
53203;SDS011;39086;54.424;18.456;2022-07-24T04:38:14;5.83;;;5.57;;
53203;SDS011;39086;54.424;18.456;2022-07-24T04:39:17;4.83;;;4.53;;
53203;SDS011;39086;54.424;18.456;2022-07-24T04:40:21;3.80;;;3.63;;
53203;SDS011;39086;54.424;18.456;2022-07-24T04:41:24;3.63;;;3.43;;
53203;SDS011;39086;54.424;18.456;2022-07-24T04:42:27;2.17;;;2.07;;
53203;SDS011;39086;54.424;18.456;2022-07-24T04:43:36;2.60;;;2.50;;
53203;SDS011;39086;54.424;18.456;2022-07-24T04:44:38;5.30;;;2.10;;
53203;SDS011;39086;54.424;18.456;2022-07-24T04:45:42;3.53;;;3.33;;
53203;SDS011;39086;54.424;18.456;2022-07-24T04:46:44;1.33;;;1.33;;
53203;SDS011;39086;54.424;18.456;2022-07-24T04:47:47;0.90;;;0.90;;
53203;SDS011;39086;54.424;18.456;2022-07-24T04:48:56;2.33;;;1.80;;
53203;SDS011;39086;54.424;18.456;2022-07-24T04:49:59;1.50;;;1.40;;
53203;SDS011;39086;54.424;18.456;2022-07-24T04:51:02;1.27;;;1.20;;
53203;SDS011;39086;54.424;18.456;2022-07-24T04:52:05;6.63;;;1.70;;
53203;SDS011;39086;54.424;18.456;2022-07-24T04:53:08;1.27;;;1.03;;
53203;SDS011;39086;54.424;18.456;2022-07-24T04:54:17;1.30;;;1.30;;
53203;SDS011;39086;54.424;18.456;2022-07-24T04:55:22;1.60;;;1.50;;
53203;SDS011;39086;54.424;18.456;2022-07-24T04:56:24;2.30;;;1.57;;
53203;SDS011;39086;54.424;18.456;2022-07-24T04:57:31;1.10;;;1.00;;
53203;SDS011;39086;54.424;18.456;2022-07-24T04:58:33;5.43;;;1.10;;
53203;SDS011;39086;54.424;18.456;2022-07-24T04:59:43;0.97;;;0.87;;
53203;SDS011;39086;54.424;18.456;2022-07-24T05:00:45;0.50;;;0.50;;
53203;SDS011;39086;54.424;18.456;2022-07-24T05:01:49;1.97;;;1.13;;
53203;SDS011;39086;54.424;18.456;2022-07-24T05:02:51;1.50;;;1.40;;
53203;SDS011;39086;54.424;18.456;2022-07-24T05:04:01;2.63;;;0.90;;
53203;SDS011;39086;54.424;18.456;2022-07-24T05:05:04;1.43;;;0.63;;
53203;SDS011;39086;54.424;18.456;2022-07-24T05:06:07;2.07;;;1.83;;
53203;SDS011;39086;54.424;18.456;2022-07-24T05:07:10;1.60;;;1.50;;
53203;SDS011;39086;54.424;18.456;2022-07-24T05:08:19;0.83;;;0.83;;
53203;SDS011;39086;54.424;18.456;2022-07-24T05:09:28;0.90;;;0.90;;
53203;SDS011;39086;54.424;18.456;2022-07-24T05:10:33;1.43;;;1.43;;
53203;SDS011;39086;54.424;18.456;2022-07-24T05:11:35;1.37;;;1.37;;
53203;SDS011;39086;54.424;18.456;2022-07-24T05:12:38;1.03;;;1.00;;
53203;SDS011;39086;54.424;18.456;2022-07-24T05:13:41;1.27;;;1.20;;
53203;SDS011;39086;54.424;18.456;2022-07-24T05:14:50;0.97;;;0.97;;
53203;SDS011;39086;54.424;18.456;2022-07-24T05:15:59;3.03;;;1.23;;
53203;SDS011;39086;54.424;18.456;2022-07-24T05:17:02;0.77;;;0.77;;
53203;SDS011;39086;54.424;18.456;2022-07-24T05:18:05;1.40;;;0.97;;
53203;SDS011;39086;54.424;18.456;2022-07-24T05:19:08;1.97;;;1.87;;
53203;SDS011;39086;54.424;18.456;2022-07-24T05:20:10;0.60;;;0.60;;
53203;SDS011;39086;54.424;18.456;2022-07-24T05:21:20;1.20;;;1.20;;
53203;SDS011;39086;54.424;18.456;2022-07-24T05:22:22;1.97;;;1.87;;
53203;SDS011;39086;54.424;18.456;2022-07-24T05:23:26;2.20;;;1.47;;
53203;SDS011;39086;54.424;18.456;2022-07-24T05:24:28;1.90;;;1.10;;
53203;SDS011;39086;54.424;18.456;2022-07-24T05:25:33;2.40;;;0.80;;
53203;SDS011;39086;54.424;18.456;2022-07-24T05:26:49;1.63;;;1.63;;
53203;SDS011;39086;54.424;18.456;2022-07-24T05:27:53;1.47;;;1.20;;
53203;SDS011;39086;54.424;18.456;2022-07-24T05:28:56;2.20;;;1.30;;
53203;SDS011;39086;54.424;18.456;2022-07-24T05:29:59;1.20;;;1.10;;
53203;SDS011;39086;54.424;18.456;2022-07-24T05:31:02;1.00;;;1.00;;
53203;SDS011;39086;54.424;18.456;2022-07-24T05:32:11;1.63;;;1.53;;
53203;SDS011;39086;54.424;18.456;2022-07-24T05:33:15;1.03;;;0.83;;
53203;SDS011;39086;54.424;18.456;2022-07-24T05:34:17;1.70;;;1.60;;
53203;SDS011;39086;54.424;18.456;2022-07-24T05:35:27;0.90;;;0.90;;
53203;SDS011;39086;54.424;18.456;2022-07-24T05:36:49;0.57;;;0.57;;
53203;SDS011;39086;54.424;18.456;2022-07-24T05:37:58;1.07;;;1.03;;
53203;SDS011;39086;54.424;18.456;2022-07-24T05:39:01;0.77;;;0.77;;
53203;SDS011;39086;54.424;18.456;2022-07-24T05:40:05;0.93;;;0.93;;
53203;SDS011;39086;54.424;18.456;2022-07-24T05:41:11;1.57;;;1.47;;
53203;SDS011;39086;54.424;18.456;2022-07-24T05:42:13;0.70;;;0.70;;
53203;SDS011;39086;54.424;18.456;2022-07-24T05:43:24;0.97;;;0.97;;
53203;SDS011;39086;54.424;18.456;2022-07-24T05:44:26;2.63;;;1.27;;
53203;SDS011;39086;54.424;18.456;2022-07-24T05:45:30;1.13;;;0.70;;
53203;SDS011;39086;54.424;18.456;2022-07-24T05:46:32;0.87;;;0.87;;
53203;SDS011;39086;54.424;18.456;2022-07-24T05:47:36;0.70;;;0.70;;
53203;SDS011;39086;54.424;18.456;2022-07-24T05:48:45;0.80;;;0.80;;
53203;SDS011;39086;54.424;18.456;2022-07-24T05:49:55;1.40;;;1.30;;
53203;SDS011;39086;54.424;18.456;2022-07-24T05:50:58;1.80;;;1.03;;
53203;SDS011;39086;54.424;18.456;2022-07-24T05:52:01;0.73;;;0.73;;
53203;SDS011;39086;54.424;18.456;2022-07-24T05:53:09;3.30;;;1.03;;
53203;SDS011;39086;54.424;18.456;2022-07-24T05:54:19;0.70;;;0.70;;
53203;SDS011;39086;54.424;18.456;2022-07-24T05:55:21;0.60;;;0.60;;
53203;SDS011;39086;54.424;18.456;2022-07-24T05:56:26;0.37;;;0.37;;
53203;SDS011;39086;54.424;18.456;2022-07-24T05:57:28;1.00;;;1.00;;
53203;SDS011;39086;54.424;18.456;2022-07-24T05:58:32;0.70;;;0.70;;
53203;SDS011;39086;54.424;18.456;2022-07-24T05:59:41;0.90;;;0.90;;
53203;SDS011;39086;54.424;18.456;2022-07-24T06:00:44;0.87;;;0.87;;
53203;SDS011;39086;54.424;18.456;2022-07-24T06:01:47;0.70;;;0.70;;
53203;SDS011;39086;54.424;18.456;2022-07-24T06:02:51;0.60;;;0.60;;
53203;SDS011;39086;54.424;18.456;2022-07-24T06:03:54;0.43;;;0.43;;
53203;SDS011;39086;54.424;18.456;2022-07-24T06:05:04;0.67;;;0.67;;
53203;SDS011;39086;54.424;18.456;2022-07-24T06:06:07;0.80;;;0.80;;
53203;SDS011;39086;54.424;18.456;2022-07-24T06:07:12;0.67;;;0.67;;
53203;SDS011;39086;54.424;18.456;2022-07-24T06:08:15;1.43;;;1.37;;
53203;SDS011;39086;54.424;18.456;2022-07-24T06:09:18;0.73;;;0.73;;
53203;SDS011;39086;54.424;18.456;2022-07-24T06:10:27;0.60;;;0.60;;
53203;SDS011;39086;54.424;18.456;2022-07-24T06:11:32;1.03;;;1.03;;
53203;SDS011;39086;54.424;18.456;2022-07-24T06:12:34;0.77;;;0.77;;
53203;SDS011;39086;54.424;18.456;2022-07-24T06:13:38;1.83;;;0.53;;
53203;SDS011;39086;54.424;18.456;2022-07-24T06:14:47;5.90;;;1.33;;
53203;SDS011;39086;54.424;18.456;2022-07-24T06:15:51;1.13;;;1.13;;
53203;SDS011;39086;54.424;18.456;2022-07-24T06:16:54;4.77;;;0.73;;
53203;SDS011;39086;54.424;18.456;2022-07-24T06:17:57;0.63;;;0.63;;
53203;SDS011;39086;54.424;18.456;2022-07-24T06:19:00;0.80;;;0.80;;
53203;SDS011;39086;54.424;18.456;2022-07-24T06:20:10;1.50;;;1.07;;
53203;SDS011;39086;54.424;18.456;2022-07-24T06:21:14;1.63;;;1.53;;
53203;SDS011;39086;54.424;18.456;2022-07-24T06:22:16;1.77;;;1.00;;
53203;SDS011;39086;54.424;18.456;2022-07-24T06:23:20;1.10;;;0.70;;
53203;SDS011;39086;54.424;18.456;2022-07-24T06:24:28;0.80;;;0.80;;
53203;SDS011;39086;54.424;18.456;2022-07-24T06:25:31;0.80;;;0.80;;
53203;SDS011;39086;54.424;18.456;2022-07-24T06:26:36;2.00;;;0.80;;
53203;SDS011;39086;54.424;18.456;2022-07-24T06:27:58;1.00;;;1.00;;